createdAt,value
2018-04-19T00:00:58.680Z,16.94
2018-04-19T00:03:27.025Z,16.95
2018-04-19T00:05:55.537Z,16.92
2018-04-19T00:08:23.947Z,16.92
2018-04-19T00:10:52.329Z,16.89
2018-04-19T00:13:21.087Z,16.96
2018-04-19T00:15:49.250Z,16.74
2018-04-19T00:18:17.838Z,16.61
2018-04-19T00:20:46.284Z,16.30
2018-04-19T00:23:14.637Z,16.40
2018-04-19T00:25:43.076Z,16.07
2018-04-19T00:28:11.383Z,15.54
2018-04-19T00:30:39.626Z,15.95
2018-04-19T00:33:08.408Z,16.30
2018-04-19T00:35:37.163Z,16.31
2018-04-19T00:38:05.690Z,15.83
2018-04-19T00:40:33.961Z,15.78
2018-04-19T00:43:02.351Z,15.83
2018-04-19T00:45:30.706Z,15.96
2018-04-19T00:47:59.192Z,15.73
2018-04-19T00:50:27.709Z,15.95
2018-04-19T00:53:07.893Z,16.23
2018-04-19T00:55:37.423Z,16.42
2018-04-19T00:58:06.008Z,16.46
2018-04-19T01:00:34.560Z,16.48
2018-04-19T01:03:03.085Z,16.44
2018-04-19T01:05:31.957Z,16.45
2018-04-19T01:08:00.399Z,16.50
2018-04-19T01:10:28.630Z,16.50
2018-04-19T01:12:57.126Z,16.48
2018-04-19T01:15:25.751Z,16.38
2018-04-19T01:17:54.182Z,16.26
2018-04-19T01:20:22.840Z,16.03
2018-04-19T01:22:51.084Z,15.10
2018-04-19T01:25:19.676Z,15.47
2018-04-19T01:27:48.089Z,15.66
2018-04-19T01:30:16.374Z,16.10
2018-04-19T01:32:45.041Z,15.27
2018-04-19T01:35:13.830Z,14.95
2018-04-19T01:37:42.044Z,15.34
2018-04-19T01:40:10.719Z,15.50
2018-04-19T01:42:38.961Z,15.73
2018-04-19T01:45:07.249Z,15.05
2018-04-19T01:47:35.723Z,14.76
2018-04-19T01:50:03.907Z,14.62
2018-04-19T01:52:32.381Z,14.75
2018-04-19T01:55:01.163Z,14.92
2018-04-19T01:57:29.737Z,15.37
2018-04-19T01:59:58.133Z,15.73
2018-04-19T02:02:26.807Z,15.59
2018-04-19T02:04:55.121Z,15.76
2018-04-19T02:07:23.873Z,15.92
2018-04-19T02:09:52.141Z,15.99
2018-04-19T02:12:20.433Z,15.94
2018-04-19T02:14:48.962Z,15.66
2018-04-19T02:17:17.482Z,15.77
2018-04-19T02:19:45.847Z,15.91
2018-04-19T02:22:14.138Z,15.98
2018-04-19T02:24:42.336Z,15.24
2018-04-19T02:27:10.586Z,15.65
2018-04-19T02:29:39.376Z,15.76
2018-04-19T02:32:07.661Z,15.67
2018-04-19T02:34:36.234Z,15.54
2018-04-19T02:37:04.610Z,15.44
2018-04-19T02:39:32.997Z,15.61
2018-04-19T02:42:01.573Z,15.66
2018-04-19T02:44:30.002Z,15.70
2018-04-19T02:46:58.438Z,15.77
2018-04-19T02:49:27.140Z,15.23
2018-04-19T02:51:55.555Z,15.20
2018-04-19T02:54:24.038Z,15.19
2018-04-19T02:56:52.863Z,15.37
2018-04-19T02:59:22.537Z,15.43
2018-04-19T03:01:50.860Z,15.47
2018-04-19T03:04:19.186Z,15.31
2018-04-19T03:06:47.722Z,15.34
2018-04-19T03:09:16.605Z,15.30
2018-04-19T03:11:45.273Z,14.10
2018-04-19T03:14:13.372Z,13.91
2018-04-19T03:16:41.824Z,13.80
2018-04-19T03:19:10.276Z,14.40
2018-04-19T03:21:38.685Z,14.66
2018-04-19T03:24:06.979Z,14.83
2018-04-19T03:26:35.544Z,14.91
2018-04-19T03:29:04.137Z,15.16
2018-04-19T03:31:32.408Z,15.35
2018-04-19T03:34:00.897Z,15.48
2018-04-19T03:36:29.460Z,15.35
2018-04-19T03:38:57.830Z,15.48
2018-04-19T03:41:26.552Z,15.58
2018-04-19T03:43:55.222Z,15.72
2018-04-19T03:46:23.806Z,15.24
2018-04-19T03:48:52.072Z,15.36
2018-04-19T03:51:20.602Z,15.62
2018-04-19T03:53:48.731Z,15.80
2018-04-19T03:56:17.222Z,15.51
2018-04-19T03:58:45.996Z,15.23
2018-04-19T04:01:15.093Z,14.41
2018-04-19T04:03:43.572Z,14.38
2018-04-19T04:06:12.066Z,14.16
2018-04-19T04:08:40.634Z,14.04
2018-04-19T04:11:09.321Z,14.00
2018-04-19T04:13:37.726Z,14.47
2018-04-19T04:16:06.282Z,14.63
2018-04-19T04:18:46.309Z,14.57
2018-04-19T04:21:20.103Z,14.15
2018-04-19T04:23:54.360Z,13.87
2018-04-19T04:26:22.642Z,13.61
2018-04-19T04:28:51.837Z,14.29
2018-04-19T04:31:20.270Z,14.78
2018-04-19T04:33:49.006Z,14.97
2018-04-19T04:36:17.398Z,14.48
2018-04-19T04:38:45.663Z,14.60
2018-04-19T04:41:14.221Z,14.47
2018-04-19T04:43:42.437Z,15.14
2018-04-19T04:46:11.081Z,15.60
2018-04-19T04:48:39.429Z,15.76
2018-04-19T04:51:07.705Z,15.45
2018-04-19T04:53:36.288Z,15.68
2018-04-19T04:56:04.808Z,15.71
2018-04-19T04:58:33.282Z,15.95
2018-04-19T05:01:01.766Z,16.09
2018-04-19T05:03:29.944Z,16.27
2018-04-19T05:05:58.428Z,16.40
2018-04-19T05:08:26.766Z,16.45
2018-04-19T05:10:55.302Z,16.61
2018-04-19T05:13:23.721Z,16.63
2018-04-19T05:15:52.263Z,16.71
2018-04-19T05:18:20.513Z,15.97
2018-04-19T05:20:48.906Z,16.44
2018-04-19T05:23:17.061Z,16.09
2018-04-19T05:25:45.451Z,16.04
2018-04-19T05:28:13.932Z,16.44
2018-04-19T05:30:42.598Z,16.59
2018-04-19T05:33:10.894Z,16.00
2018-04-19T05:35:39.482Z,15.76
2018-04-19T05:38:08.047Z,16.12
2018-04-19T05:40:36.395Z,15.81
2018-04-19T05:43:04.908Z,16.00
2018-04-19T05:45:33.292Z,15.49
2018-04-19T05:48:01.933Z,15.61
2018-04-19T05:50:30.548Z,16.21
2018-04-19T05:52:59.234Z,16.36
2018-04-19T05:55:28.221Z,16.68
2018-04-19T05:57:56.696Z,16.83
2018-04-19T06:00:24.935Z,17.71
2018-04-19T06:02:53.780Z,17.93
2018-04-19T06:05:22.349Z,18.39
2018-04-19T06:07:50.789Z,18.79
2018-04-19T06:10:19.513Z,18.68
2018-04-19T06:12:48.092Z,19.32
2018-04-19T06:15:16.910Z,19.53
2018-04-19T06:17:45.435Z,19.29
2018-04-19T06:20:14.138Z,19.66
2018-04-19T06:22:42.857Z,20.16
2018-04-19T06:25:11.422Z,20.45
2018-04-19T06:27:39.832Z,20.56
2018-04-19T06:30:08.402Z,20.54
2018-04-19T06:32:36.971Z,20.93
2018-04-19T06:35:05.275Z,19.89
2018-04-19T06:37:33.637Z,19.94
2018-04-19T06:40:01.992Z,19.95
2018-04-19T06:42:30.395Z,20.70
2018-04-19T06:44:58.952Z,20.22
2018-04-19T06:47:27.538Z,20.35
2018-04-19T06:49:55.835Z,19.92
2018-04-19T06:52:24.403Z,20.58
2018-04-19T06:54:52.790Z,20.81
2018-04-19T06:57:21.181Z,20.84
2018-04-19T06:59:49.190Z,20.25
2018-04-19T07:02:17.712Z,18.72
2018-04-19T07:04:46.187Z,18.74
2018-04-19T07:07:14.144Z,18.79
2018-04-19T07:09:42.182Z,19.31
2018-04-19T07:12:10.259Z,19.20
2018-04-19T07:14:38.240Z,18.59
2018-04-19T07:17:06.582Z,18.80
2018-04-19T07:19:34.593Z,19.50
2018-04-19T07:22:02.581Z,20.02
2018-04-19T07:24:30.587Z,19.92
2018-04-19T07:26:58.653Z,19.61
2018-04-19T07:29:26.658Z,20.05
2018-04-19T07:31:54.825Z,20.29
2018-04-19T07:34:22.901Z,20.23
2018-04-19T07:36:50.978Z,21.09
2018-04-19T07:39:19.065Z,21.50
2018-04-19T07:41:47.062Z,21.75
2018-04-19T07:44:15.064Z,22.70
2018-04-19T07:46:43.140Z,22.90
2018-04-19T07:49:11.154Z,23.32
2018-04-19T07:51:39.249Z,24.65
2018-04-19T07:54:07.257Z,24.14
2018-04-19T07:56:35.236Z,23.98
2018-04-19T07:59:03.263Z,23.90
2018-04-19T08:01:31.278Z,23.42
2018-04-19T08:03:59.333Z,23.03
2018-04-19T08:06:27.387Z,23.00
2018-04-19T08:08:55.398Z,22.95
2018-04-19T08:11:23.414Z,21.97
2018-04-19T08:13:51.622Z,22.25
2018-04-19T08:16:19.666Z,22.54
2018-04-19T08:18:48.143Z,23.48
2018-04-19T08:21:16.189Z,24.06
2018-04-19T08:23:44.242Z,23.54
2018-04-19T08:26:12.372Z,23.22
2018-04-19T08:28:40.355Z,22.82
2018-04-19T08:31:08.438Z,23.69
2018-04-19T08:33:36.479Z,24.15
2018-04-19T08:36:04.461Z,23.55
2018-04-19T08:38:32.489Z,23.77
2018-04-19T08:41:00.473Z,23.29
2018-04-19T08:43:28.489Z,23.82
2018-04-19T08:45:56.590Z,24.18
2018-04-19T08:48:24.629Z,24.78
2018-04-19T08:50:53.244Z,25.45
2018-04-19T08:53:21.659Z,26.04
2018-04-19T08:55:49.710Z,26.86
2018-04-19T08:58:17.755Z,27.37
2018-04-19T09:00:45.783Z,28.61
2018-04-19T09:03:13.801Z,28.97
2018-04-19T09:05:41.827Z,29.18
2018-04-19T09:08:09.865Z,26.80
2018-04-19T09:10:37.913Z,27.43
2018-04-19T09:13:05.919Z,27.20
2018-04-19T09:15:33.891Z,26.80
2018-04-19T09:18:01.948Z,26.03
2018-04-19T09:20:30.305Z,26.95
2018-04-19T09:22:58.375Z,25.56
2018-04-19T09:25:26.403Z,24.86
2018-04-19T09:27:54.415Z,26.00
2018-04-19T09:30:23.144Z,25.82
2018-04-19T09:32:51.668Z,25.78
2018-04-19T09:35:19.955Z,25.87
2018-04-19T09:37:48.031Z,25.48
2018-04-19T09:40:16.055Z,24.37
2018-04-19T09:42:44.019Z,24.97
2018-04-19T09:45:12.029Z,25.00
2018-04-19T09:47:40.009Z,24.88
2018-04-19T09:50:08.078Z,24.63
2018-04-19T09:52:36.088Z,24.81
2018-04-19T09:55:04.064Z,25.23
2018-04-19T09:57:32.047Z,25.05
2018-04-19T10:00:00.087Z,24.93
2018-04-19T10:02:29.012Z,24.70
2018-04-19T10:05:03.069Z,25.44
2018-04-19T10:07:31.078Z,25.46
2018-04-19T10:09:59.079Z,25.10
2018-04-19T10:12:27.123Z,24.28
2018-04-19T10:14:55.156Z,23.70
2018-04-19T10:17:23.213Z,24.06
2018-04-19T10:19:51.246Z,24.40
2018-04-19T10:22:19.732Z,24.65
2018-04-19T10:24:47.741Z,24.87
2018-04-19T10:27:15.747Z,24.45
2018-04-19T10:29:43.771Z,24.09
2018-04-19T10:32:11.777Z,24.37
2018-04-19T10:34:39.725Z,23.89
2018-04-19T10:37:07.757Z,24.79
2018-04-19T10:39:35.898Z,24.24
2018-04-19T10:42:04.065Z,24.23
2018-04-19T10:44:32.052Z,24.60
2018-04-19T10:47:00.142Z,24.83
2018-04-19T10:49:28.131Z,25.70
2018-04-19T10:51:56.203Z,26.09
2018-04-19T10:54:24.132Z,25.69
2018-04-19T10:56:52.151Z,25.98
2018-04-19T10:59:20.282Z,25.96
2018-04-19T11:01:48.342Z,27.29
2018-04-19T11:04:16.340Z,27.54
2018-04-19T11:06:44.402Z,27.55
2018-04-19T11:09:12.425Z,27.50
2018-04-19T11:11:40.421Z,27.07
2018-04-19T11:14:08.419Z,26.92
2018-04-19T11:16:36.436Z,27.91
2018-04-19T11:19:04.547Z,28.03
2018-04-19T11:21:32.469Z,28.36
2018-04-19T11:24:00.704Z,28.48
2018-04-19T11:26:28.744Z,27.96
2018-04-19T11:28:56.816Z,27.91
2018-04-19T11:31:24.849Z,28.93
2018-04-19T11:33:52.950Z,28.20
2018-04-19T11:36:20.970Z,27.08
2018-04-19T11:38:48.961Z,26.93
2018-04-19T11:41:17.025Z,28.37
2018-04-19T11:43:44.999Z,27.66
2018-04-19T11:46:12.991Z,26.81
2018-04-19T11:48:41.003Z,26.32
2018-04-19T11:51:09.037Z,25.51
2018-04-19T11:53:37.181Z,27.46
2018-04-19T11:56:05.204Z,28.25
2018-04-19T11:58:33.181Z,27.95
2018-04-19T12:01:01.237Z,28.57
2018-04-19T12:03:29.299Z,27.51
2018-04-19T12:05:57.347Z,27.14
2018-04-19T12:08:25.387Z,25.64
2018-04-19T12:10:53.459Z,25.46
2018-04-19T12:13:21.425Z,25.60
2018-04-19T12:15:49.528Z,25.11
2018-04-19T12:18:17.605Z,25.07
2018-04-19T12:20:45.678Z,25.48
2018-04-19T12:23:13.760Z,24.14
2018-04-19T12:25:41.817Z,24.73
2018-04-19T12:28:09.783Z,24.63
2018-04-19T12:30:37.790Z,24.41
2018-04-19T12:33:05.800Z,24.39
2018-04-19T12:35:33.901Z,24.29
2018-04-19T12:38:01.981Z,24.05
2018-04-19T12:40:29.949Z,24.03
2018-04-19T12:42:57.959Z,24.16
2018-04-19T12:45:25.971Z,23.80
2018-04-19T12:47:54.036Z,24.33
2018-04-19T12:50:22.059Z,24.46
2018-04-19T12:52:50.054Z,24.45
2018-04-19T12:55:18.084Z,24.23
2018-04-19T12:57:46.126Z,24.26
2018-04-19T13:00:14.176Z,23.72
2018-04-19T13:02:42.197Z,23.68
2018-04-19T13:05:10.259Z,23.88
2018-04-19T13:07:38.290Z,23.73
2018-04-19T13:10:06.301Z,23.82
2018-04-19T13:12:34.265Z,24.90
2018-04-19T13:15:02.289Z,25.26
2018-04-19T13:17:30.281Z,26.13
2018-04-19T13:19:58.700Z,25.67
2018-04-19T13:22:27.080Z,25.31
2018-04-19T13:24:55.161Z,25.97
2018-04-19T13:27:23.517Z,27.73
2018-04-19T13:29:51.584Z,27.86
2018-04-19T13:32:19.602Z,27.91
2018-04-19T13:34:47.630Z,26.99
2018-04-19T13:37:15.675Z,27.72
2018-04-19T13:39:43.770Z,28.41
2018-04-19T13:42:11.832Z,27.99
2018-04-19T13:44:39.855Z,29.30
2018-04-19T13:47:07.921Z,29.19
2018-04-19T13:49:36.028Z,27.82
2018-04-19T13:52:04.125Z,27.36
2018-04-19T13:54:32.162Z,27.29
2018-04-19T13:57:00.229Z,26.49
2018-04-19T13:59:28.299Z,26.75
2018-04-19T14:01:56.404Z,26.48
2018-04-19T14:04:24.422Z,26.30
2018-04-19T14:06:52.390Z,26.77
2018-04-19T14:09:20.464Z,27.23
2018-04-19T14:11:48.459Z,27.31
2018-04-19T14:14:16.447Z,27.24
2018-04-19T14:16:44.520Z,28.12
2018-04-19T14:19:12.518Z,27.58
2018-04-19T14:21:40.542Z,28.08
2018-04-19T14:24:08.603Z,28.16
2018-04-19T14:26:36.638Z,27.48
2018-04-19T14:29:05.738Z,27.35
2018-04-19T14:31:33.748Z,27.15
2018-04-19T14:34:01.734Z,27.17
2018-04-19T14:36:29.952Z,26.87
2018-04-19T14:38:58.086Z,27.43
2018-04-19T14:41:27.230Z,27.41
2018-04-19T14:43:55.265Z,26.71
2018-04-19T14:46:23.357Z,26.60
2018-04-19T14:48:51.446Z,26.25
2018-04-19T14:51:19.547Z,26.30
2018-04-19T14:53:47.537Z,26.35
2018-04-19T14:56:15.557Z,26.10
2018-04-19T14:58:43.536Z,25.65
2018-04-19T15:01:11.918Z,26.18
2018-04-19T15:03:41.633Z,26.58
2018-04-19T15:06:09.641Z,25.55
2018-04-19T15:08:37.617Z,24.77
2018-04-19T15:11:05.573Z,24.26
2018-04-19T15:13:33.590Z,24.74
2018-04-19T15:16:01.651Z,25.04
2018-04-19T15:18:29.612Z,25.00
2018-04-19T15:20:57.586Z,25.01
2018-04-19T15:23:25.754Z,24.90
2018-04-19T15:25:53.989Z,24.96
2018-04-19T15:28:22.095Z,24.54
2018-04-19T15:30:50.460Z,24.18
2018-04-19T15:33:18.849Z,24.20
2018-04-19T15:35:47.575Z,24.54
2018-04-19T15:38:15.865Z,24.91
2018-04-19T15:40:44.214Z,25.21
2018-04-19T15:43:12.248Z,25.35
2018-04-19T15:45:40.294Z,25.30
2018-04-19T15:48:08.579Z,24.86
2018-04-19T15:50:37.122Z,24.78
2018-04-19T15:53:05.625Z,24.80
2018-04-19T15:55:33.947Z,24.78
2018-04-19T15:58:02.671Z,24.02
2018-04-19T16:00:30.691Z,24.08
2018-04-19T16:02:58.697Z,23.95
2018-04-19T16:05:26.754Z,23.85
2018-04-19T16:07:55.160Z,24.04
2018-04-19T16:10:23.629Z,23.89
2018-04-19T16:12:52.317Z,23.89
2018-04-19T16:15:20.779Z,24.03
2018-04-19T16:17:48.812Z,23.20
2018-04-19T16:20:16.825Z,22.97
2018-04-19T16:22:44.855Z,22.91
2018-04-19T16:25:12.943Z,22.53
2018-04-19T16:27:41.407Z,22.30
2018-04-19T16:30:09.756Z,22.57
2018-04-19T16:32:38.626Z,23.10
2018-04-19T16:35:07.414Z,23.23
2018-04-19T16:37:35.718Z,23.37
2018-04-19T16:40:05.200Z,23.36
2018-04-19T16:42:33.739Z,23.30
2018-04-19T16:45:02.129Z,23.18
2018-04-19T16:47:30.542Z,22.83
2018-04-19T16:49:59.151Z,23.01
2018-04-19T16:52:27.615Z,22.84
2018-04-19T16:54:55.971Z,22.14
2018-04-19T16:57:24.263Z,22.61
2018-04-19T16:59:52.673Z,21.92
2018-04-19T17:02:20.814Z,22.08
2018-04-19T17:04:49.273Z,22.12
2018-04-19T17:07:17.674Z,22.11
2018-04-19T17:09:46.034Z,21.88
2018-04-19T17:12:14.150Z,21.88
2018-04-19T17:14:42.688Z,21.94
2018-04-19T17:17:11.161Z,21.48
2018-04-19T17:19:39.685Z,21.65
2018-04-19T17:22:07.799Z,21.42
2018-04-19T17:24:35.811Z,21.65
2018-04-19T17:27:04.462Z,21.72
2018-04-19T17:29:32.790Z,21.71
2018-04-19T17:32:01.298Z,21.70
2018-04-19T17:34:30.216Z,21.64
2018-04-19T17:36:58.815Z,21.57
2018-04-19T17:39:27.355Z,21.53
2018-04-19T17:41:55.895Z,21.26
2018-04-19T17:44:24.499Z,21.37
2018-04-19T17:46:53.550Z,21.38
2018-04-19T17:49:21.859Z,21.38
2018-04-19T17:51:50.516Z,21.34
2018-04-19T17:54:18.485Z,21.33
2018-04-19T17:56:46.590Z,21.23
2018-04-19T17:59:14.991Z,21.16
2018-04-19T18:01:43.516Z,21.14
2018-04-19T18:04:11.885Z,21.15
2018-04-19T18:06:40.316Z,21.11
2018-04-19T18:09:08.866Z,21.07
2018-04-19T18:11:37.221Z,21.04
2018-04-19T18:14:05.722Z,20.95
2018-04-19T18:16:34.084Z,21.04
2018-04-19T18:19:02.665Z,20.98
2018-04-19T18:21:31.193Z,20.94
2018-04-19T18:23:59.625Z,20.78
2018-04-19T18:26:28.022Z,20.20
2018-04-19T18:28:56.198Z,20.40
2018-04-19T18:31:24.722Z,20.51
2018-04-19T18:33:53.337Z,20.37
2018-04-19T18:36:21.899Z,20.39
2018-04-19T18:38:50.417Z,20.37
2018-04-19T18:41:18.682Z,20.26
2018-04-19T18:43:47.432Z,20.29
2018-04-19T18:46:15.862Z,20.19
2018-04-19T18:48:44.434Z,20.15
2018-04-19T18:51:12.824Z,19.98
2018-04-19T18:53:41.291Z,20.04
2018-04-19T18:56:09.436Z,19.95
2018-04-19T18:58:38.199Z,19.16
2018-04-19T19:01:06.938Z,19.47
2018-04-19T19:03:35.363Z,19.77
2018-04-19T19:06:03.605Z,19.76
2018-04-19T19:08:32.171Z,19.61
2018-04-19T19:11:00.924Z,19.23
2018-04-19T19:13:29.581Z,19.14
2018-04-19T19:16:12.732Z,19.50
2018-04-19T19:18:52.864Z,19.59
2018-04-19T19:21:21.312Z,19.25
2018-04-19T19:23:49.851Z,19.49
2018-04-19T19:26:18.176Z,19.49
2018-04-19T19:28:46.604Z,19.54
2018-04-19T19:31:14.929Z,19.57
2018-04-19T19:33:43.597Z,19.43
2018-04-19T19:36:11.825Z,19.32
2018-04-19T19:38:40.379Z,19.31
2018-04-19T19:41:08.729Z,19.28
2018-04-19T19:43:36.953Z,19.18
2018-04-19T19:46:05.555Z,19.19
2018-04-19T19:48:34.137Z,19.33
2018-04-19T19:51:02.853Z,19.31
2018-04-19T19:53:31.338Z,19.13
2018-04-19T19:55:59.666Z,18.98
2018-04-19T19:58:27.894Z,19.18
2018-04-19T20:00:56.398Z,19.00
2018-04-19T20:03:25.050Z,19.04
2018-04-19T20:05:53.359Z,19.09
2018-04-19T20:08:22.098Z,19.10
2018-04-19T20:10:50.511Z,19.28
2018-04-19T20:13:18.864Z,19.30
2018-04-19T20:15:47.466Z,18.77
2018-04-19T20:18:15.631Z,18.49
2018-04-19T20:20:43.976Z,18.66
2018-04-19T20:23:12.711Z,18.76
2018-04-19T20:25:41.164Z,18.35
2018-04-19T20:28:09.352Z,18.31
2018-04-19T20:30:37.353Z,18.62
2018-04-19T20:33:05.413Z,18.81
2018-04-19T20:35:33.390Z,18.70
2018-04-19T20:38:02.045Z,18.77
2018-04-19T20:40:30.770Z,18.57
2018-04-19T20:42:59.475Z,18.58
2018-04-19T20:45:28.015Z,18.51
2018-04-19T20:47:56.366Z,18.51
2018-04-19T20:50:24.773Z,18.24
2018-04-19T20:52:53.542Z,17.69
2018-04-19T20:55:22.073Z,17.86
2018-04-19T20:57:50.509Z,18.11
2018-04-19T21:00:18.976Z,18.02
2018-04-19T21:02:47.522Z,17.57
2018-04-19T21:05:15.950Z,17.56
2018-04-19T21:07:44.804Z,17.81
2018-04-19T21:10:13.320Z,17.93
2018-04-19T21:12:41.615Z,17.75
2018-04-19T21:15:10.472Z,17.78
2018-04-19T21:17:39.019Z,17.89
2018-04-19T21:20:07.451Z,17.80
2018-04-19T21:22:36.117Z,17.72
2018-04-19T21:25:04.700Z,17.65
2018-04-19T21:27:33.222Z,17.07
2018-04-19T21:30:01.763Z,16.71
2018-04-19T21:32:29.976Z,16.92
2018-04-19T21:34:58.420Z,17.00
2018-04-19T21:37:26.811Z,16.60
2018-04-19T21:39:55.285Z,16.60
2018-04-19T21:42:23.822Z,16.88
2018-04-19T21:44:52.333Z,16.87
2018-04-19T21:47:20.828Z,17.11
2018-04-19T21:49:49.200Z,17.17
2018-04-19T21:52:17.552Z,17.20
2018-04-19T21:54:46.020Z,17.20
2018-04-19T21:57:14.451Z,17.03
2018-04-19T21:59:42.894Z,16.95
2018-04-19T22:02:11.410Z,17.02
2018-04-19T22:04:40.075Z,17.07
2018-04-19T22:07:08.323Z,16.82
2018-04-19T22:09:37.071Z,16.80
2018-04-19T22:12:05.618Z,16.98
2018-04-19T22:14:33.910Z,16.71
2018-04-19T22:17:02.581Z,16.60
2018-04-19T22:19:30.946Z,16.75
2018-04-19T22:21:59.349Z,16.70
2018-04-19T22:24:27.681Z,16.78
2018-04-19T22:26:56.105Z,16.77
2018-04-19T22:29:24.574Z,16.79
2018-04-19T22:31:52.866Z,16.70
2018-04-19T22:34:21.112Z,16.47
2018-04-19T22:36:49.418Z,16.64
2018-04-19T22:39:17.994Z,16.74
2018-04-19T22:41:46.665Z,15.94
2018-04-19T22:44:15.975Z,16.31
2018-04-19T22:46:44.651Z,16.77
2018-04-19T22:49:13.167Z,16.01
2018-04-19T22:51:41.310Z,15.77
2018-04-19T22:54:09.594Z,15.88
2018-04-19T22:56:38.173Z,16.04
2018-04-19T22:59:06.646Z,16.14
2018-04-19T23:01:34.925Z,16.07
2018-04-19T23:04:03.831Z,16.31
2018-04-19T23:06:32.500Z,16.46
2018-04-19T23:09:01.046Z,16.47
2018-04-19T23:11:29.782Z,15.81
2018-04-19T23:13:58.582Z,15.80
2018-04-19T23:16:26.826Z,16.03
2018-04-19T23:18:55.118Z,16.12
2018-04-19T23:21:23.582Z,16.37
2018-04-19T23:23:51.774Z,16.21
2018-04-19T23:26:20.877Z,16.68
2018-04-19T23:28:49.326Z,16.73
2018-04-19T23:31:17.776Z,16.12
2018-04-19T23:33:46.567Z,14.98
2018-04-19T23:36:14.881Z,14.73
2018-04-19T23:38:43.353Z,14.68
2018-04-19T23:41:11.840Z,15.45
2018-04-19T23:43:40.221Z,15.96
2018-04-19T23:46:08.556Z,16.36
2018-04-19T23:48:36.867Z,16.60
2018-04-19T23:51:05.258Z,16.57
2018-04-19T23:53:33.837Z,16.72
2018-04-19T23:56:02.515Z,16.63
2018-04-19T23:58:30.794Z,16.59
